createdAt,value
2023-02-17T00:00:33.302Z,125.40
2023-02-17T00:03:34.936Z,114.80
2023-02-17T00:06:36.663Z,120.60
2023-02-17T00:09:38.189Z,118.40
2023-02-17T00:12:39.812Z,123.40
2023-02-17T00:15:41.374Z,128.60
2023-02-17T00:18:43.010Z,120.10
2023-02-17T00:21:44.608Z,109.50
2023-02-17T00:24:46.309Z,120.60
2023-02-17T00:27:47.866Z,124.70
2023-02-17T00:30:49.462Z,125.00
2023-02-17T00:33:54.211Z,129.50
2023-02-17T00:36:55.831Z,124.70
2023-02-17T00:39:57.508Z,134.20
2023-02-17T00:42:59.120Z,122.20
2023-02-17T00:46:04.192Z,119.60
2023-02-17T00:49:06.011Z,111.00
2023-02-17T00:52:07.625Z,131.60
2023-02-17T00:55:09.314Z,113.40
2023-02-17T00:58:11.047Z,113.40
2023-02-17T01:01:12.726Z,127.40
2023-02-17T01:04:15.146Z,122.70
2023-02-17T01:07:16.783Z,127.90
2023-02-17T01:10:18.516Z,121.00
2023-02-17T01:13:20.194Z,109.50
2023-02-17T01:16:26.110Z,111.70
2023-02-17T01:22:29.653Z,120.40
2023-02-17T01:25:31.493Z,123.30
2023-02-17T01:28:33.246Z,130.20
2023-02-17T01:31:34.958Z,130.20
2023-02-17T01:34:37.572Z,112.10
2023-02-17T01:37:41.132Z,93.20
2023-02-17T01:40:49.773Z,115.90
2023-02-17T01:44:10.109Z,99.50
2023-02-17T01:47:12.563Z,99.40
2023-02-17T01:50:14.753Z,102.90
2023-02-17T01:53:22.092Z,108.60
2023-02-17T01:56:23.585Z,108.60
2023-02-17T01:59:25.158Z,108.20
2023-02-17T02:02:30.179Z,114.60
2023-02-17T02:05:32.026Z,106.20
2023-02-17T02:08:41.816Z,87.40
2023-02-17T02:11:43.413Z,64.80
2023-02-17T02:14:45.004Z,57.30
2023-02-17T02:18:03.927Z,59.60
2023-02-17T02:21:39.484Z,65.50
2023-02-17T02:25:00.029Z,65.40
2023-02-17T02:28:29.670Z,73.10
2023-02-17T02:31:46.463Z,68.20
2023-02-17T02:34:53.835Z,70.60
2023-02-17T02:38:06.710Z,91.40
2023-02-17T02:41:17.358Z,81.10
2023-02-17T02:44:21.305Z,73.30
2023-02-17T02:47:45.959Z,63.20
2023-02-17T02:50:58.029Z,78.50
2023-02-17T02:54:19.953Z,76.40
2023-02-17T02:57:41.010Z,75.40
2023-02-17T03:00:54.202Z,61.90
2023-02-17T03:04:19.023Z,56.90
2023-02-17T03:07:32.152Z,74.80
2023-02-17T03:10:33.700Z,75.00
2023-02-17T03:13:39.403Z,67.90
2023-02-17T03:16:42.901Z,74.20
2023-02-17T03:19:47.815Z,76.80
2023-02-17T03:22:50.769Z,86.30
2023-02-17T03:25:52.372Z,94.40
2023-02-17T03:28:54.010Z,90.70
2023-02-17T03:31:55.831Z,71.10
2023-02-17T03:34:57.488Z,69.90
2023-02-17T03:37:59.085Z,68.10
2023-02-17T03:41:00.630Z,67.30
2023-02-17T03:44:02.220Z,65.20
2023-02-17T03:47:03.965Z,73.90
2023-02-17T03:50:06.259Z,90.10
2023-02-17T03:53:07.867Z,86.50
2023-02-17T03:56:10.108Z,81.00
2023-02-17T03:59:11.654Z,94.20
2023-02-17T04:02:13.275Z,88.50
2023-02-17T04:05:14.879Z,88.70
2023-02-17T04:08:16.448Z,75.00
2023-02-17T04:11:18.057Z,83.20
2023-02-17T04:14:19.608Z,77.50
2023-02-17T04:17:21.217Z,68.40
2023-02-17T04:20:22.756Z,75.20
2023-02-17T04:23:24.326Z,72.60
2023-02-17T04:26:25.815Z,72.60
2023-02-17T04:29:27.410Z,74.00
2023-02-17T04:32:29.101Z,63.80
2023-02-17T04:35:30.692Z,60.70
2023-02-17T04:38:32.830Z,77.20
2023-02-17T04:41:34.420Z,73.20
2023-02-17T04:44:35.982Z,62.80
2023-02-17T04:47:37.558Z,74.70
2023-02-17T04:50:39.166Z,64.40
2023-02-17T04:53:40.696Z,67.50
2023-02-17T04:56:42.245Z,73.00
2023-02-17T04:59:44.003Z,71.50
2023-02-17T05:02:45.591Z,66.20
2023-02-17T05:05:47.241Z,60.70
2023-02-17T05:08:50.626Z,63.80
2023-02-17T05:11:52.177Z,64.80
2023-02-17T05:14:53.744Z,62.00
2023-02-17T05:17:55.256Z,65.60
2023-02-17T05:20:56.871Z,69.20
2023-02-17T05:23:58.634Z,69.70
2023-02-17T05:27:00.227Z,62.00
2023-02-17T05:30:01.912Z,62.80
2023-02-17T05:33:03.548Z,66.60
2023-02-17T05:36:09.187Z,58.40
2023-02-17T05:39:10.839Z,60.60
2023-02-17T05:42:12.526Z,63.70
2023-02-17T05:45:14.222Z,59.10
2023-02-17T05:48:15.808Z,65.50
2023-02-17T05:51:17.506Z,71.10
2023-02-17T05:54:19.138Z,66.40
2023-02-17T05:57:20.686Z,67.90
2023-02-17T06:00:22.397Z,73.00
2023-02-17T06:03:23.960Z,66.30
2023-02-17T06:06:25.477Z,66.30
2023-02-17T06:09:27.141Z,69.20
2023-02-17T06:12:28.718Z,66.00
2023-02-17T06:15:30.505Z,62.60
2023-02-17T06:18:32.105Z,66.00
2023-02-17T06:21:33.779Z,65.80
2023-02-17T06:24:35.425Z,67.40
2023-02-17T06:27:37.014Z,71.20
2023-02-17T06:30:38.637Z,67.20
2023-02-17T06:33:40.201Z,70.00
2023-02-17T06:36:41.856Z,62.30
2023-02-17T06:39:43.465Z,67.90
2023-02-17T06:42:45.020Z,63.90
2023-02-17T06:45:46.835Z,70.90
2023-02-17T06:48:48.510Z,63.30
2023-02-17T06:51:50.169Z,76.80
2023-02-17T06:54:51.788Z,73.30
2023-02-17T06:57:53.418Z,74.00
2023-02-17T07:00:54.936Z,70.80
2023-02-17T07:03:56.993Z,64.60
2023-02-17T07:06:58.627Z,73.50
2023-02-17T07:10:00.264Z,58.60
2023-02-17T07:13:01.808Z,63.70
2023-02-17T07:16:03.736Z,62.00
2023-02-17T07:19:05.431Z,61.80
2023-02-17T07:22:07.056Z,62.60
2023-02-17T07:25:08.593Z,65.10
2023-02-17T07:28:10.589Z,64.90
2023-02-17T07:31:15.432Z,55.90
2023-02-17T07:37:21.803Z,56.80
2023-02-17T07:43:25.104Z,63.70
2023-02-17T07:46:26.975Z,63.70
2023-02-17T07:49:28.662Z,57.60
2023-02-17T07:52:30.279Z,58.00
2023-02-17T07:55:31.931Z,61.50
2023-02-17T07:58:34.952Z,65.20
2023-02-17T08:01:36.701Z,66.10
2023-02-17T08:04:38.394Z,68.50
2023-02-17T08:07:39.972Z,63.90
2023-02-17T08:10:59.935Z,64.40
2023-02-17T08:14:02.160Z,60.70
2023-02-17T08:17:03.793Z,68.40
2023-02-17T08:20:08.972Z,66.50
2023-02-17T08:23:11.122Z,76.50
2023-02-17T08:26:12.753Z,71.10
2023-02-17T08:29:15.026Z,73.90
2023-02-17T08:32:17.325Z,74.90
2023-02-17T08:35:22.452Z,80.50
2023-02-17T08:38:24.097Z,79.00
2023-02-17T08:41:33.999Z,85.90
2023-02-17T08:44:36.217Z,89.50
2023-02-17T08:47:37.806Z,73.50
2023-02-17T08:50:39.424Z,76.00
2023-02-17T08:53:41.558Z,68.80
2023-02-17T08:56:43.876Z,67.10
2023-02-17T08:59:48.128Z,66.60
2023-02-17T09:02:50.571Z,82.80
2023-02-17T09:05:58.515Z,90.50
2023-02-17T09:09:00.611Z,91.60
2023-02-17T09:12:02.371Z,90.30
2023-02-17T09:15:04.613Z,82.80
2023-02-17T09:18:06.492Z,82.50
2023-02-17T09:21:10.357Z,88.20
2023-02-17T09:24:12.339Z,94.10
2023-02-17T09:27:14.178Z,93.60
2023-02-17T09:30:15.826Z,98.80
2023-02-17T09:33:17.459Z,91.20
2023-02-17T09:36:24.609Z,95.80
2023-02-17T09:39:26.551Z,94.70
2023-02-17T09:42:28.747Z,93.70
2023-02-17T09:45:35.036Z,105.50
2023-02-17T09:48:37.174Z,99.00
2023-02-17T09:52:00.454Z,94.60
2023-02-17T09:58:27.995Z,104.50
2023-02-17T10:01:31.381Z,106.90
2023-02-17T10:04:39.192Z,107.70
2023-02-17T10:07:47.434Z,113.80
2023-02-17T10:11:00.788Z,121.70
2023-02-17T10:14:15.126Z,112.10
2023-02-17T10:17:55.750Z,125.90
2023-02-17T10:21:07.284Z,126.80
2023-02-17T10:24:09.985Z,122.10
2023-02-17T10:27:28.600Z,125.90
2023-02-17T10:30:42.221Z,127.30
2023-02-17T10:33:56.492Z,126.60
2023-02-17T10:37:01.728Z,143.00
2023-02-17T10:40:19.735Z,128.30
2023-02-17T10:43:32.071Z,124.60
2023-02-17T10:46:34.993Z,122.90
2023-02-17T10:49:40.173Z,122.10
2023-02-17T10:52:42.184Z,129.50
2023-02-17T10:55:53.548Z,135.00
2023-02-17T10:59:02.988Z,135.30
2023-02-17T11:02:25.380Z,135.40
2023-02-17T11:05:30.017Z,130.40
2023-02-17T11:08:44.770Z,137.10
2023-02-17T11:11:59.003Z,135.50
2023-02-17T11:15:03.749Z,131.50
2023-02-17T11:18:18.649Z,143.40
2023-02-17T11:21:20.504Z,137.30
2023-02-17T11:24:22.515Z,131.80
2023-02-17T11:27:25.348Z,126.10
2023-02-17T11:30:29.678Z,116.20
2023-02-17T11:33:37.560Z,131.60
2023-02-17T11:36:39.192Z,122.40
2023-02-17T11:39:49.318Z,127.90
2023-02-17T11:42:58.582Z,127.90
2023-02-17T11:46:09.285Z,125.20
2023-02-17T11:49:45.037Z,124.80
2023-02-17T11:56:30.048Z,107.30
2023-02-17T11:59:40.531Z,114.10
2023-02-17T12:03:10.307Z,119.40
2023-02-17T12:06:22.693Z,108.50
2023-02-17T12:09:32.686Z,120.00
2023-02-17T12:13:08.309Z,120.20
2023-02-17T12:16:27.545Z,110.50
2023-02-17T12:19:31.998Z,114.50
2023-02-17T12:22:41.724Z,97.60
2023-02-17T12:26:19.534Z,115.40
2023-02-17T12:30:00.426Z,115.40
2023-02-17T12:33:19.964Z,112.60
2023-02-17T12:36:23.649Z,109.60
2023-02-17T12:39:31.079Z,96.70
2023-02-17T12:42:36.501Z,96.00
2023-02-17T12:45:43.504Z,94.10
2023-02-17T12:48:50.231Z,84.60
2023-02-17T12:51:59.973Z,89.60
2023-02-17T12:55:05.635Z,91.90
2023-02-17T12:58:08.205Z,97.60
2023-02-17T13:01:12.700Z,97.20
2023-02-17T13:04:17.653Z,74.60
2023-02-17T13:07:34.322Z,71.40
2023-02-17T13:10:38.236Z,75.10
2023-02-17T13:13:39.903Z,84.20
2023-02-17T13:16:45.679Z,81.50
2023-02-17T13:19:47.333Z,70.40
2023-02-17T13:22:49.145Z,74.20
2023-02-17T13:26:04.337Z,74.10
2023-02-17T13:29:20.608Z,72.80
2023-02-17T13:32:27.964Z,76.00
2023-02-17T13:35:34.137Z,66.60
2023-02-17T13:38:35.960Z,73.40
2023-02-17T13:41:48.336Z,61.10
2023-02-17T13:44:51.361Z,60.70
2023-02-17T13:47:55.946Z,57.50
2023-02-17T13:50:59.507Z,53.90
2023-02-17T13:54:24.140Z,44.70
2023-02-17T13:57:30.605Z,49.50
2023-02-17T14:00:32.402Z,41.80
2023-02-17T14:03:42.633Z,43.10
2023-02-17T14:06:44.366Z,40.90
2023-02-17T14:09:53.679Z,40.30
2023-02-17T14:12:55.848Z,41.80
2023-02-17T14:15:59.839Z,47.20
2023-02-17T14:19:21.642Z,42.80
2023-02-17T14:22:32.192Z,43.50
2023-02-17T14:25:36.547Z,41.50
2023-02-17T14:28:38.058Z,43.60
2023-02-17T14:31:49.570Z,39.60
2023-02-17T14:34:51.252Z,45.30
2023-02-17T14:37:52.957Z,42.10
2023-02-17T14:40:55.958Z,45.20
2023-02-17T14:43:58.102Z,37.00
2023-02-17T14:47:00.279Z,38.40
2023-02-17T14:50:01.921Z,43.50
2023-02-17T14:53:03.498Z,41.30
2023-02-17T14:56:25.498Z,38.90
2023-02-17T14:59:27.092Z,40.10
2023-02-17T15:02:30.301Z,43.10
2023-02-17T15:05:31.988Z,40.50
2023-02-17T15:08:35.038Z,38.60
2023-02-17T15:11:37.088Z,47.30
2023-02-17T15:14:38.667Z,45.90
2023-02-17T15:17:40.229Z,64.50
2023-02-17T15:20:43.764Z,46.60
2023-02-17T15:23:45.322Z,44.80
2023-02-17T15:26:48.129Z,42.80
2023-02-17T15:29:49.777Z,40.40
2023-02-17T15:32:51.434Z,44.50
2023-02-17T15:35:54.048Z,40.50
2023-02-17T15:38:55.664Z,44.00
2023-02-17T15:41:59.340Z,44.60
2023-02-17T15:45:00.947Z,40.70
2023-02-17T15:48:08.623Z,40.80
2023-02-17T15:51:13.157Z,40.10
2023-02-17T15:54:19.117Z,39.10
2023-02-17T15:57:24.882Z,37.90
2023-02-17T16:00:29.051Z,40.90
2023-02-17T16:03:30.698Z,40.30
2023-02-17T16:06:32.338Z,40.90
2023-02-17T16:09:34.028Z,37.60
2023-02-17T16:12:35.711Z,40.30
2023-02-17T16:15:38.448Z,37.40
2023-02-17T16:18:40.162Z,39.70
2023-02-17T16:21:41.762Z,37.10
2023-02-17T16:24:43.405Z,42.20
2023-02-17T16:27:46.292Z,39.20
2023-02-17T16:30:49.647Z,43.20
2023-02-17T16:33:51.848Z,41.80
2023-02-17T16:36:56.385Z,40.00
2023-02-17T16:39:57.981Z,38.30
2023-02-17T16:42:59.999Z,40.90
2023-02-17T16:46:03.737Z,39.80
2023-02-17T16:49:31.993Z,45.30
2023-02-17T16:52:34.097Z,40.50
2023-02-17T16:55:36.642Z,40.70
2023-02-17T16:58:38.855Z,40.90
2023-02-17T17:01:40.489Z,48.70
2023-02-17T17:04:42.135Z,50.40
2023-02-17T17:07:43.991Z,65.20
2023-02-17T17:10:46.193Z,71.20
2023-02-17T17:13:47.791Z,70.50
2023-02-17T17:16:52.745Z,73.90
2023-02-17T17:19:54.686Z,73.00
2023-02-17T17:22:56.722Z,65.60
2023-02-17T17:25:58.913Z,55.00
2023-02-17T17:29:01.020Z,56.20
2023-02-17T17:32:02.725Z,56.30
2023-02-17T17:35:04.542Z,57.90
2023-02-17T17:38:06.224Z,61.00
2023-02-17T17:41:11.770Z,54.30
2023-02-17T17:44:13.510Z,51.10
2023-02-17T17:47:29.516Z,51.00
2023-02-17T17:50:31.696Z,56.80
2023-02-17T17:53:33.306Z,51.70
2023-02-17T17:56:38.853Z,50.20
2023-02-17T17:59:40.490Z,50.20
2023-02-17T18:02:42.552Z,47.60
2023-02-17T18:05:44.267Z,39.70
2023-02-17T18:08:46.889Z,43.60
2023-02-17T18:11:49.803Z,42.50
2023-02-17T18:14:53.320Z,39.80
2023-02-17T18:17:55.163Z,43.80
2023-02-17T18:20:56.850Z,43.30
2023-02-17T18:23:58.429Z,38.80
2023-02-17T18:27:00.004Z,42.90
2023-02-17T18:30:01.684Z,41.30
2023-02-17T18:33:03.368Z,40.70
2023-02-17T18:36:24.197Z,40.10
2023-02-17T18:39:26.020Z,35.00
2023-02-17T18:42:27.602Z,38.10
2023-02-17T18:45:29.260Z,38.60
2023-02-17T18:48:31.737Z,46.30
2023-02-17T18:51:33.336Z,42.40
2023-02-17T18:54:34.903Z,39.90
2023-02-17T18:57:36.637Z,44.50
2023-02-17T19:00:38.232Z,48.50
2023-02-17T19:03:39.793Z,42.90
2023-02-17T19:06:41.669Z,40.70
2023-02-17T19:09:43.358Z,42.40
2023-02-17T19:12:44.934Z,40.90
2023-02-17T19:15:46.569Z,39.00
2023-02-17T19:18:48.328Z,41.00
2023-02-17T19:21:50.017Z,35.50
2023-02-17T19:24:53.476Z,39.10
2023-02-17T19:27:55.036Z,39.90
2023-02-17T19:30:57.690Z,41.00
2023-02-17T19:33:59.262Z,42.60
2023-02-17T19:37:01.021Z,41.90
2023-02-17T19:40:02.726Z,44.20
2023-02-17T19:43:04.349Z,42.60
2023-02-17T19:46:06.946Z,46.50
2023-02-17T19:49:08.761Z,47.00
2023-02-17T19:52:10.699Z,44.50
2023-02-17T19:55:12.519Z,40.50
2023-02-17T19:58:14.132Z,42.60
2023-02-17T20:01:19.388Z,52.80
2023-02-17T20:04:21.105Z,54.00
2023-02-17T20:07:23.052Z,58.20
2023-02-17T20:10:24.808Z,52.70
2023-02-17T20:13:28.626Z,57.30
2023-02-17T20:16:32.142Z,51.80
2023-02-17T20:19:38.506Z,45.80
2023-02-17T20:22:40.523Z,44.50
2023-02-17T20:25:42.160Z,45.40
2023-02-17T20:28:44.120Z,59.30
2023-02-17T20:31:45.824Z,63.30
2023-02-17T20:34:47.543Z,63.60
2023-02-17T20:37:49.100Z,71.60
2023-02-17T20:40:50.718Z,61.20
2023-02-17T20:43:53.018Z,69.10
2023-02-17T20:46:55.263Z,67.70
2023-02-17T20:49:56.837Z,62.90
2023-02-17T20:52:58.514Z,76.20
2023-02-17T20:56:00.197Z,75.50
2023-02-17T20:59:02.048Z,77.20
2023-02-17T21:02:03.688Z,70.80
2023-02-17T21:05:05.463Z,81.40
2023-02-17T21:08:07.094Z,71.10
2023-02-17T21:11:08.762Z,74.80
2023-02-17T21:14:10.438Z,71.90
2023-02-17T21:17:12.226Z,75.00
2023-02-17T21:20:19.431Z,72.20
2023-02-17T21:23:22.643Z,73.00
2023-02-17T21:26:24.632Z,74.10
2023-02-17T21:29:26.275Z,68.90
2023-02-17T21:32:27.863Z,68.00
2023-02-17T21:35:29.473Z,63.20
2023-02-17T21:38:31.027Z,76.40
2023-02-17T21:41:32.725Z,65.50
2023-02-17T21:44:52.530Z,52.90
2023-02-17T21:47:54.241Z,57.70
2023-02-17T21:51:07.506Z,64.00
2023-02-17T21:54:09.777Z,76.10
2023-02-17T21:57:11.402Z,70.80
2023-02-17T22:00:13.741Z,77.60
2023-02-17T22:03:15.367Z,78.60
2023-02-17T22:06:32.466Z,77.60
2023-02-17T22:12:37.158Z,72.70
2023-02-17T22:15:39.163Z,78.30
2023-02-17T22:18:41.314Z,79.00
2023-02-17T22:21:43.205Z,78.90
2023-02-17T22:24:44.826Z,82.10
2023-02-17T22:27:46.519Z,85.30
2023-02-17T22:30:52.847Z,85.00
2023-02-17T22:33:56.618Z,81.10
2023-02-17T22:36:58.209Z,80.10
2023-02-17T22:40:00.329Z,72.60
2023-02-17T22:43:02.107Z,82.00
2023-02-17T22:46:04.320Z,82.40
2023-02-17T22:49:06.179Z,77.20
2023-02-17T22:52:07.846Z,86.30
2023-02-17T22:55:09.699Z,89.50
2023-02-17T22:58:11.254Z,69.70
2023-02-17T23:01:20.601Z,87.50
2023-02-17T23:04:22.185Z,89.70
2023-02-17T23:07:24.203Z,82.40
2023-02-17T23:10:25.726Z,76.10
2023-02-17T23:13:27.283Z,81.60
2023-02-17T23:16:28.842Z,58.90
2023-02-17T23:19:30.944Z,52.30
2023-02-17T23:22:32.628Z,60.50
2023-02-17T23:25:34.436Z,56.40
2023-02-17T23:28:36.126Z,73.90
2023-02-17T23:31:38.373Z,63.20
2023-02-17T23:34:40.297Z,63.20
2023-02-17T23:37:42.050Z,59.60
2023-02-17T23:40:47.170Z,87.20
2023-02-17T23:43:48.745Z,90.80
2023-02-17T23:46:50.395Z,76.60
2023-02-17T23:49:52.005Z,65.70
2023-02-17T23:52:53.576Z,54.20
2023-02-17T23:56:02.999Z,57.70
2023-02-17T23:59:04.705Z,49.70
